Time;durP1;ratioP1;P1;durP2;ratioP2;P2;SDS_P1;SDS_P2;PMS_P1;PMS_P2;Temp;Humidity;BMP_temperature;BMP_pressure;BME280_temperature;BME280_humidity;BME280_pressure;Samples;Min_cycle;Max_cycle;Signal;HPM_P1;HPM_P2
2023/01/20 00:02:24;;;;;;;12.67;9.97;;;;;;;2.46;56.22;94816.94;5016667;28;20215;-87
2023/01/20 00:04:50;;;;;;;12.60;8.20;;;;;;;2.49;56.97;94816.66;5017252;28;20210;-87
2023/01/20 00:07:17;;;;;;;9.07;6.20;;;;;;;2.50;57.19;94810.63;5016687;28;20214;-86
2023/01/20 00:09:43;;;;;;;6.37;5.37;;;;;;;2.42;57.98;94819.75;5016761;28;20652;-87
2023/01/20 00:12:10;;;;;;;8.37;6.10;;;;;;;2.46;57.78;94815.19;5017271;28;20233;-87
2023/01/20 00:14:37;;;;;;;8.13;5.50;;;;;;;2.47;57.28;94819.34;5017375;28;20520;-87
2023/01/20 00:17:04;;;;;;;7.20;5.43;;;;;;;2.49;57.21;94816.66;5018238;28;20218;-86
2023/01/20 00:19:30;;;;;;;8.27;5.80;;;;;;;2.45;57.61;94817.88;5018595;28;20206;-87
2023/01/20 00:21:56;;;;;;;7.43;5.60;;;;;;;2.46;57.45;94832.19;5017090;28;20210;-88
2023/01/20 00:24:23;;;;;;;7.60;6.00;;;;;;;2.52;57.10;94826.50;5017956;28;20206;-87
2023/01/20 00:26:49;;;;;;;9.43;5.87;;;;;;;2.54;56.95;94830.50;5018118;28;20209;-87
2023/01/20 00:29:16;;;;;;;8.37;6.17;;;;;;;2.53;57.58;94828.88;5016731;28;20203;-87
2023/01/20 00:31:43;;;;;;;8.00;6.30;;;;;;;2.43;57.89;94834.06;5017547;28;20786;-87
2023/01/20 00:34:11;;;;;;;9.27;6.37;;;;;;;2.43;57.84;94833.25;5016618;28;20222;-87
2023/01/20 00:36:37;;;;;;;8.30;6.27;;;;;;;2.44;57.83;94834.84;5016986;28;20207;-88
2023/01/20 00:39:04;;;;;;;8.30;6.10;;;;;;;2.48;58.14;94837.91;5016968;28;20192;-87
2023/01/20 00:41:31;;;;;;;11.03;6.43;;;;;;;2.51;57.96;94838.41;5017780;28;20199;-86
2023/01/20 00:43:57;;;;;;;8.27;7.03;;;;;;;2.51;57.16;94835.84;5016103;28;20834;-87
2023/01/20 00:46:24;;;;;;;8.60;5.97;;;;;;;2.54;57.06;94843.19;5016556;28;20209;-86
2023/01/20 00:48:51;;;;;;;8.93;6.53;;;;;;;2.53;57.12;94839.06;5016339;28;20219;-87
2023/01/20 00:51:18;;;;;;;8.33;6.47;;;;;;;2.55;57.53;94838.91;5007796;28;20266;-87
2023/01/20 00:53:44;;;;;;;9.87;6.23;;;;;;;2.56;57.39;94843.84;5011125;28;20219;-86
2023/01/20 00:56:11;;;;;;;7.27;6.30;;;;;;;2.52;57.63;94847.63;5017681;28;20199;-87
2023/01/20 00:58:37;;;;;;;7.63;6.07;;;;;;;2.53;57.58;94844.13;5021577;28;20246;-87
2023/01/20 01:01:04;;;;;;;9.27;6.80;;;;;;;2.54;57.14;94850.00;5020781;28;20203;-87
2023/01/20 01:03:30;;;;;;;9.63;6.33;;;;;;;2.55;57.19;94854.16;4945230;28;20455;-87
2023/01/20 01:06:07;;;;;;;7.30;5.90;;;;;;;2.53;57.42;94854.28;4954244;28;20250;-87
2023/01/20 01:08:34;;;;;;;12.03;7.03;;;;;;;2.52;57.23;94851.91;5010560;28;20225;-87
2023/01/20 01:11:01;;;;;;;7.83;6.20;;;;;;;2.54;57.33;94855.09;5020419;28;20675;-87
2023/01/20 01:13:28;;;;;;;8.30;6.20;;;;;;;2.54;57.29;94857.63;5019806;28;20226;-87
2023/01/20 01:15:54;;;;;;;8.70;6.17;;;;;;;2.55;57.37;94856.69;5019600;28;20203;-88
2023/01/20 01:18:20;;;;;;;9.20;6.23;;;;;;;2.54;56.90;94850.00;5020203;28;20675;-88
2023/01/20 01:20:47;;;;;;;7.30;5.27;;;;;;;2.53;57.00;94861.91;5020578;28;20210;-87
2023/01/20 01:23:17;;;;;;;6.27;5.40;;;;;;;2.48;56.46;94853.94;5020384;28;20855;-87
2023/01/20 01:25:44;;;;;;;7.30;5.50;;;;;;;2.49;56.59;94859.84;5021917;28;20213;-87
2023/01/20 01:28:10;;;;;;;6.93;5.60;;;;;;;2.44;57.02;94857.72;5021261;28;20222;-87
2023/01/20 01:30:36;;;;;;;5.60;5.00;;;;;;;2.46;57.04;94866.00;5021105;28;20206;-87
2023/01/20 01:33:06;;;;;;;7.40;5.60;;;;;;;2.48;56.90;94866.66;5021439;28;20222;-87
2023/01/20 01:35:32;;;;;;;7.43;5.20;;;;;;;2.45;56.97;94858.53;5021900;28;20198;-87
2023/01/20 01:37:59;;;;;;;7.53;5.20;;;;;;;2.41;57.02;94861.34;5020525;28;20195;-88
2023/01/20 01:40:27;;;;;;;6.13;5.53;;;;;;;2.41;57.39;94863.09;5020994;28;20202;-88
2023/01/20 01:42:53;;;;;;;6.77;5.37;;;;;;;2.35;57.27;94872.06;5021019;28;20230;-87
2023/01/20 01:45:25;;;;;;;7.10;5.10;;;;;;;2.37;57.08;94877.81;5020564;28;20629;-87
2023/01/20 01:48:04;;;;;;;6.47;4.83;;;;;;;2.36;56.84;94881.28;5020984;28;20226;-87
2023/01/20 01:50:38;;;;;;;7.03;5.00;;;;;;;2.36;56.78;94876.22;5019996;28;20205;-87
2023/01/20 01:53:05;;;;;;;6.47;5.00;;;;;;;2.37;57.14;94872.72;5020325;28;20218;-87
2023/01/20 01:55:37;;;;;;;5.87;4.47;;;;;;;2.38;56.59;94866.72;5019753;28;20217;-87
2023/01/20 01:58:06;;;;;;;5.77;4.93;;;;;;;2.40;56.83;94864.03;5017915;28;20202;-87
2023/01/20 02:00:33;;;;;;;7.23;4.70;;;;;;;2.35;57.27;94867.00;5019576;28;20249;-87
2023/01/20 02:02:59;;;;;;;5.53;4.97;;;;;;;2.35;57.29;94871.28;5021010;28;20293;-87
2023/01/20 02:05:29;;;;;;;5.87;4.67;;;;;;;2.37;57.32;94877.81;5020546;28;20215;-87
2023/01/20 02:07:57;;;;;;;6.70;4.67;;;;;;;2.36;57.65;94878.75;5021016;28;20230;-87
2023/01/20 02:10:24;;;;;;;6.83;4.90;;;;;;;2.38;57.61;94876.06;5020284;28;20679;-87
2023/01/20 02:12:52;;;;;;;6.03;5.03;;;;;;;2.39;57.67;94880.22;5020755;28;20219;-87
2023/01/20 02:15:24;;;;;;;8.20;4.90;;;;;;;2.39;58.00;94880.22;5002587;28;20563;-87
2023/01/20 02:18:19;;;;;;;5.27;4.40;;;;;;;2.38;57.94;94881.94;5000953;28;20207;-87
2023/01/20 02:21:19;;;;;;;6.70;4.97;;;;;;;2.32;58.44;94887.59;5000021;28;20206;-87
2023/01/20 02:24:17;;;;;;;7.43;4.70;;;;;;;2.28;58.64;94882.97;5021593;28;20234;-87
2023/01/20 02:27:00;;;;;;;6.50;4.30;;;;;;;2.20;58.50;94886.22;5012317;28;20206;-87
2023/01/20 02:29:51;;;;;;;5.83;4.97;;;;;;;2.20;58.49;94891.28;5019985;28;20237;-88
2023/01/20 02:32:27;;;;;;;5.50;4.33;;;;;;;2.17;58.94;94891.56;5020386;28;20537;-87
2023/01/20 02:35:00;;;;;;;4.47;3.97;;;;;;;2.17;58.27;94891.56;5019656;28;20201;-87
2023/01/20 02:37:29;;;;;;;5.17;4.00;;;;;;;2.18;58.48;94883.00;5019682;28;20207;-88
2023/01/20 02:40:05;;;;;;;5.00;4.00;;;;;;;2.21;58.92;94894.63;5019890;28;20276;-87
2023/01/20 02:42:38;;;;;;;5.50;4.00;;;;;;;2.22;58.49;94896.22;5020362;28;20245;-88
2023/01/20 02:45:09;;;;;;;4.43;3.60;;;;;;;2.23;58.88;94901.16;5020680;28;20253;-87
2023/01/20 02:47:44;;;;;;;4.60;3.87;;;;;;;2.24;58.54;94900.22;5020983;28;20199;-88
2023/01/20 02:50:15;;;;;;;4.57;4.00;;;;;;;2.27;58.73;94901.69;5020014;28;20198;-88
2023/01/20 02:52:45;;;;;;;5.33;4.37;;;;;;;2.27;58.48;94899.16;5011879;28;20249;-87
2023/01/20 02:55:30;;;;;;;4.83;3.97;;;;;;;2.27;58.42;94901.69;5015639;28;20842;-87
2023/01/20 02:58:02;;;;;;;5.70;4.30;;;;;;;2.25;58.94;94904.34;5019041;28;20217;-88
2023/01/20 03:00:34;;;;;;;4.43;4.03;;;;;;;2.29;58.62;94902.34;5018847;28;20195;-87
2023/01/20 03:03:06;;;;;;;5.53;4.17;;;;;;;2.28;58.33;94911.69;4999229;28;20239;-87
2023/01/20 03:05:37;;;;;;;5.60;4.00;;;;;;;2.27;58.30;94902.47;5019297;28;20225;-89
2023/01/20 03:08:07;;;;;;;4.30;3.37;;;;;;;2.26;58.85;94913.59;5019867;28;20253;-87
2023/01/20 03:10:37;;;;;;;3.87;3.57;;;;;;;2.24;58.76;94915.47;5019536;28;20587;-87
2023/01/20 03:13:09;;;;;;;4.67;4.03;;;;;;;2.23;58.59;94913.06;5020929;28;20594;-88
2023/01/20 03:15:43;;;;;;;4.57;3.93;;;;;;;2.20;58.84;94923.50;5020209;28;20190;-88
2023/01/20 03:18:12;;;;;;;4.30;3.53;;;;;;;2.20;59.01;94914.13;5020763;28;20209;-87
2023/01/20 03:20:38;;;;;;;5.67;4.10;;;;;;;2.22;59.10;94919.88;5019378;28;20722;-87
2023/01/20 03:23:05;;;;;;;4.20;3.40;;;;;;;2.22;58.56;94924.16;5019421;28;20226;-87
2023/01/20 03:25:32;;;;;;;4.27;3.83;;;;;;;2.21;59.08;94920.00;5020056;28;20579;-87
2023/01/20 03:27:59;;;;;;;4.73;3.47;;;;;;;2.19;58.57;94925.22;5019867;28;20203;-87
2023/01/20 03:30:25;;;;;;;3.57;3.27;;;;;;;2.13;58.83;94925.00;5019703;28;20559;-87
2023/01/20 03:32:53;;;;;;;4.40;4.00;;;;;;;2.06;58.71;94928.09;5019304;28;20219;-87
2023/01/20 03:35:21;;;;;;;3.83;3.40;;;;;;;2.01;58.87;94926.94;5019755;28;20202;-87
2023/01/20 03:37:47;;;;;;;5.17;3.77;;;;;;;1.99;58.93;94934.69;5019261;28;20199;-87
2023/01/20 03:40:14;;;;;;;5.40;3.87;;;;;;;1.95;59.38;94930.00;5019740;28;20207;-87
2023/01/20 03:42:48;;;;;;;4.90;3.73;;;;;;;1.93;59.36;94930.16;5004472;28;20250;-87
2023/01/20 03:45:22;;;;;;;8.33;3.77;;;;;;;1.91;59.46;94942.22;5000668;28;20203;-87
2023/01/20 03:47:56;;;;;;;4.93;4.10;;;;;;;1.86;60.02;94936.75;5010233;28;20202;-87
2023/01/20 03:50:35;;;;;;;4.80;3.80;;;;;;;1.80;60.52;94954.25;5018700;28;20202;-87
2023/01/20 03:53:07;;;;;;;4.30;3.90;;;;;;;1.77;60.36;94947.72;5019756;28;20223;-87
2023/01/20 03:55:38;;;;;;;5.20;4.37;;;;;;;1.79;60.85;94948.38;4999019;28;20203;-87
2023/01/20 03:58:07;;;;;;;5.03;4.20;;;;;;;1.79;60.69;94955.19;5012912;28;20195;-87
2023/01/20 04:00:39;;;;;;;6.40;4.37;;;;;;;1.70;61.02;94960.16;5019570;28;20206;-87
2023/01/20 04:03:09;;;;;;;4.37;3.97;;;;;;;1.73;61.27;94959.88;5019546;28;20247;-87
2023/01/20 04:05:38;;;;;;;4.40;4.00;;;;;;;1.74;61.52;94964.00;5010578;28;20253;-87
2023/01/20 04:08:09;;;;;;;5.37;3.87;;;;;;;1.75;61.18;94957.19;5019987;28;20207;-88
2023/01/20 04:10:39;;;;;;;4.63;3.80;;;;;;;1.76;61.44;94963.88;5018407;28;20202;-88
2023/01/20 04:13:06;;;;;;;6.20;4.20;;;;;;;1.72;61.76;94971.00;5019752;28;20223;-87
2023/01/20 04:15:34;;;;;;;4.93;3.97;;;;;;;1.72;62.05;94973.53;5018864;28;20206;-87
2023/01/20 04:18:11;;;;;;;5.37;4.37;;;;;;;1.78;61.88;94973.88;5019130;28;20687;-87
2023/01/20 04:20:40;;;;;;;5.37;4.17;;;;;;;1.72;62.32;94973.53;5017848;28;20202;-87
2023/01/20 04:23:08;;;;;;;7.33;4.87;;;;;;;1.76;62.75;94974.03;5018970;28;20223;-88
2023/01/20 04:25:35;;;;;;;6.07;4.23;;;;;;;1.72;63.37;94976.06;5019450;28;20195;-87
2023/01/20 04:28:01;;;;;;;5.60;4.80;;;;;;;1.73;63.96;94975.09;5019435;28;20199;-87
2023/01/20 04:30:27;;;;;;;7.80;5.23;;;;;;;1.65;65.16;94977.53;5020840;28;20206;-87
2023/01/20 04:32:54;;;;;;;5.73;4.87;;;;;;;1.65;65.50;94979.28;5023614;28;20344;-87
2023/01/20 04:35:20;;;;;;;5.37;4.87;;;;;;;1.63;66.32;94978.59;5023234;28;20671;-86
2023/01/20 04:37:48;;;;;;;5.77;5.17;;;;;;;1.66;66.81;94985.94;5003210;28;20287;-88
2023/01/20 04:40:15;;;;;;;5.77;4.93;;;;;;;1.71;66.33;94992.22;5010024;28;20195;-87
2023/01/20 04:42:41;;;;;;;7.57;5.33;;;;;;;1.68;66.51;94992.50;5002806;28;20907;-87
2023/01/20 04:45:14;;;;;;;7.53;5.07;;;;;;;1.68;67.28;94989.94;5008982;28;20214;-87
2023/01/20 04:47:40;;;;;;;6.50;5.27;;;;;;;1.67;67.71;94990.09;4964247;28;20689;-87
2023/01/20 04:50:08;;;;;;;6.37;5.53;;;;;;;1.69;67.75;94995.81;5015188;28;20228;-86
2023/01/20 04:52:35;;;;;;;7.37;5.90;;;;;;;1.66;68.29;95004.50;5018430;28;20649;-87
2023/01/20 04:55:05;;;;;;;6.70;5.77;;;;;;;1.62;68.85;95008.25;5022886;28;20205;-88
2023/01/20 04:57:32;;;;;;;6.20;5.60;;;;;;;1.66;67.87;95008.78;5022035;28;20271;-88
2023/01/20 04:59:58;;;;;;;6.13;5.33;;;;;;;1.68;68.60;95006.91;5022250;28;20201;-87
2023/01/20 05:02:25;;;;;;;7.53;6.23;;;;;;;1.68;68.25;95017.06;5022264;28;20219;-87
2023/01/20 05:04:51;;;;;;;7.43;5.97;;;;;;;1.66;68.88;95012.13;5022277;28;20217;-88
2023/01/20 05:07:17;;;;;;;6.87;5.93;;;;;;;1.71;68.97;95020.13;5022027;28;20211;-87
2023/01/20 05:09:44;;;;;;;6.83;5.77;;;;;;;1.73;68.63;95020.00;5021964;28;20250;-87
2023/01/20 05:12:11;;;;;;;7.53;6.03;;;;;;;1.69;69.14;95028.81;5020101;28;20734;-87
2023/01/20 05:14:38;;;;;;;7.90;6.67;;;;;;;1.68;69.45;95025.47;5021295;28;20198;-88
2023/01/20 05:17:04;;;;;;;7.10;6.33;;;;;;;1.68;69.59;95034.81;5020554;28;20691;-86
2023/01/20 05:19:31;;;;;;;6.90;5.90;;;;;;;1.69;69.44;95036.44;5022284;28;20206;-89
2023/01/20 05:21:59;;;;;;;7.20;6.03;;;;;;;1.68;69.70;95048.31;5021277;28;20203;-87
2023/01/20 05:24:25;;;;;;;7.10;6.30;;;;;;;1.74;68.99;95042.66;5020655;28;20202;-87
2023/01/20 05:26:51;;;;;;;6.80;6.03;;;;;;;1.76;69.32;95046.81;5009645;28;20569;-87
2023/01/20 05:29:19;;;;;;;6.70;5.97;;;;;;;1.75;68.88;95046.00;5010607;28;20222;-87
2023/01/20 05:31:46;;;;;;;7.37;6.03;;;;;;;1.77;69.14;95050.94;5003901;28;20288;-87
2023/01/20 05:34:12;;;;;;;7.27;6.33;;;;;;;1.78;69.14;95055.09;5009326;28;20226;-86
2023/01/20 05:36:38;;;;;;;9.87;5.77;;;;;;;1.76;68.69;95050.16;5016256;28;20199;-87
2023/01/20 05:39:05;;;;;;;7.03;6.03;;;;;;;1.70;69.22;95061.66;5007588;28;20216;-86
2023/01/20 05:41:32;;;;;;;9.13;5.63;;;;;;;1.71;69.28;95059.94;5012000;28;20199;-87
2023/01/20 05:43:58;;;;;;;9.20;5.67;;;;;;;1.70;68.98;95055.78;5017478;28;20222;-87
2023/01/20 05:46:26;;;;;;;8.27;5.70;;;;;;;1.71;68.95;95062.47;5017251;28;20203;-86
2023/01/20 05:48:52;;;;;;;7.17;5.83;;;;;;;1.73;68.72;95074.06;5018931;28;20234;-87
2023/01/20 05:51:19;;;;;;;7.20;5.63;;;;;;;1.68;69.27;95072.88;5015225;28;20203;-88
2023/01/20 05:53:45;;;;;;;7.87;6.10;;;;;;;1.69;69.50;95069.41;5012630;28;20220;-87
2023/01/20 05:56:14;;;;;;;6.33;5.67;;;;;;;1.65;69.33;95071.41;5010488;28;20203;-86
2023/01/20 05:58:43;;;;;;;6.23;5.23;;;;;;;1.66;69.20;95085.69;5013434;28;20206;-87
2023/01/20 06:01:12;;;;;;;7.40;5.97;;;;;;;1.61;69.67;95077.69;5002941;28;20207;-87
2023/01/20 06:03:40;;;;;;;6.00;5.40;;;;;;;1.55;69.66;95090.88;5018597;28;20233;-86
2023/01/20 06:06:13;;;;;;;7.33;5.67;;;;;;;1.58;69.45;95079.69;5020082;28;20199;-87
2023/01/20 06:08:39;;;;;;;6.87;5.57;;;;;;;1.55;69.50;95082.47;5020350;28;20198;-86
2023/01/20 06:11:06;;;;;;;7.30;6.10;;;;;;;1.52;69.88;95092.91;5018800;28;20199;-86
2023/01/20 06:13:34;;;;;;;6.53;5.83;;;;;;;1.52;69.45;95086.09;5019859;28;20222;-87
2023/01/20 06:16:01;;;;;;;5.90;5.30;;;;;;;1.52;69.18;95086.09;5017973;28;20202;-87
2023/01/20 06:18:29;;;;;;;9.20;6.00;;;;;;;1.53;68.97;95087.72;5019999;28;20206;-86
2023/01/20 06:20:58;;;;;;;8.83;5.87;;;;;;;1.50;69.25;95085.44;5025720;28;20193;-88
2023/01/20 06:23:25;;;;;;;8.43;5.80;;;;;;;1.51;68.80;95089.56;5024283;28;20699;-87
2023/01/20 06:25:58;;;;;;;6.30;5.50;;;;;;;1.52;68.97;95095.44;5020300;28;20203;-87
2023/01/20 06:28:24;;;;;;;5.90;5.23;;;;;;;1.53;68.69;95100.41;5021124;28;20199;-86
2023/01/20 06:30:51;;;;;;;6.70;5.63;;;;;;;1.54;68.77;95103.72;5019959;28;20219;-87
2023/01/20 06:33:17;;;;;;;8.37;5.77;;;;;;;1.55;68.49;95103.56;5011967;28;20218;-86
2023/01/20 06:35:43;;;;;;;7.37;5.70;;;;;;;1.54;68.97;95108.81;5005044;28;20192;-87
2023/01/20 06:38:11;;;;;;;8.67;6.23;;;;;;;1.57;68.43;95108.50;5004723;28;20206;-87
2023/01/20 06:40:39;;;;;;;7.93;6.03;;;;;;;1.54;68.05;95108.81;5005209;28;20200;-87
2023/01/20 06:43:06;;;;;;;6.77;6.07;;;;;;;1.48;68.57;95115.19;5010360;28;20216;-87
2023/01/20 06:45:37;;;;;;;7.10;5.63;;;;;;;1.50;68.13;95112.53;5015381;28;20213;-87
2023/01/20 06:48:04;;;;;;;7.33;5.80;;;;;;;1.47;68.19;95126.28;5015961;28;20253;-87
2023/01/20 06:50:30;;;;;;;7.00;5.80;;;;;;;1.50;68.42;95128.56;5007779;28;20215;-87
2023/01/20 06:52:58;;;;;;;8.43;5.90;;;;;;;1.48;68.07;95130.41;5014322;28;20597;-87
2023/01/20 06:55:26;;;;;;;7.13;5.97;;;;;;;1.50;68.22;95126.03;5017466;28;20789;-87
2023/01/20 06:57:59;;;;;;;9.13;6.80;;;;;;;1.44;68.47;95133.34;5019824;28;20186;-88
2023/01/20 07:00:26;;;;;;;9.23;6.07;;;;;;;1.37;68.56;95131.31;5015593;28;20191;-87
2023/01/20 07:03:24;;;;;;;7.43;6.43;;;;;;;1.36;69.19;95139.88;5015223;28;20211;-87
2023/01/20 07:05:57;;;;;;;7.70;5.90;;;;;;;1.40;69.21;95140.41;5016624;28;20199;-87
2023/01/20 07:08:29;;;;;;;8.67;6.50;;;;;;;1.39;68.75;95147.22;5008747;28;20708;-87
2023/01/20 07:10:59;;;;;;;7.27;6.57;;;;;;;1.42;68.75;95153.75;5015557;28;20226;-88
2023/01/20 07:13:25;;;;;;;10.00;6.70;;;;;;;1.42;68.93;95155.50;5017058;28;20218;-87
2023/01/20 07:15:53;;;;;;;8.87;7.33;;;;;;;1.36;69.29;95160.16;5019422;28;20203;-87
2023/01/20 07:18:38;;;;;;;7.83;6.97;;;;;;;1.41;69.30;95164.03;5019358;28;20598;-88
2023/01/20 07:21:09;;;;;;;11.33;8.43;;;;;;;1.38;75.10;95167.63;5018794;28;20269;-88
2023/01/20 07:23:47;;;;;;;13.00;8.20;;;;;;;1.44;77.11;95172.19;5011779;28;20629;-88
2023/01/20 07:26:25;;;;;;;8.57;7.53;;;;;;;1.43;74.92;95170.59;5017277;28;20211;-88
2023/01/20 07:28:52;;;;;;;11.40;7.33;;;;;;;1.47;73.05;95173.66;5018616;28;20194;-87
2023/01/20 07:31:21;;;;;;;11.10;7.87;;;;;;;1.43;71.47;95180.72;5020858;28;20405;-87
2023/01/20 07:33:48;;;;;;;9.37;7.50;;;;;;;1.45;70.77;95178.88;5019615;28;20226;-87
2023/01/20 07:36:15;;;;;;;9.77;7.47;;;;;;;1.45;71.49;95178.88;5018305;28;20202;-88
2023/01/20 07:38:42;;;;;;;8.80;7.67;;;;;;;1.51;70.66;95185.16;5012287;28;20209;-86
2023/01/20 07:41:14;;;;;;;18.83;13.27;;;;;;;1.52;70.15;95190.09;4992804;28;20269;-87
2023/01/20 07:43:51;;;;;;;18.83;14.93;;;;;;;1.55;70.21;95192.34;5000838;28;20228;-87
2023/01/20 07:46:23;;;;;;;10.37;8.13;;;;;;;1.55;69.73;95199.16;5020216;28;20194;-88
2023/01/20 07:48:49;;;;;;;11.13;7.53;;;;;;;1.45;70.26;95204.25;5019416;28;20211;-87
2023/01/20 07:51:16;;;;;;;8.27;7.20;;;;;;;1.48;70.00;95206.53;5012037;28;20223;-87
2023/01/20 07:53:47;;;;;;;8.50;7.27;;;;;;;1.48;69.87;95208.25;5019655;28;20229;-88
2023/01/20 07:56:20;;;;;;;12.37;7.80;;;;;;;1.58;69.57;95216.66;5018985;28;20199;-88
2023/01/20 07:58:49;;;;;;;10.20;7.77;;;;;;;1.53;69.90;95219.63;5019266;28;20199;-87
2023/01/20 08:01:18;;;;;;;10.13;7.70;;;;;;;1.48;69.81;95221.75;5018521;28;20829;-88
2023/01/20 08:03:46;;;;;;;9.50;8.13;;;;;;;1.46;69.69;95217.72;5016682;28;20683;-87
2023/01/20 08:06:15;;;;;;;8.10;6.97;;;;;;;1.38;70.35;95219.16;5017472;28;20202;-89
2023/01/20 08:08:42;;;;;;;8.90;7.53;;;;;;;1.31;70.60;95225.69;5017917;28;20584;-87
2023/01/20 08:11:10;;;;;;;8.60;7.70;;;;;;;1.36;70.44;95222.75;5018249;28;20293;-87
2023/01/20 08:13:46;;;;;;;8.27;7.30;;;;;;;1.45;70.05;95219.47;5018742;28;20245;-87
2023/01/20 08:16:17;;;;;;;9.70;7.33;;;;;;;1.49;70.17;95225.88;5018987;28;20273;-88
2023/01/20 08:18:44;;;;;;;8.40;7.20;;;;;;;1.38;70.00;95233.56;5018490;28;20195;-87
2023/01/20 08:21:18;;;;;;;9.03;6.97;;;;;;;1.35;70.34;95233.81;5017830;28;20203;-87
2023/01/20 08:23:44;;;;;;;8.93;7.50;;;;;;;1.38;70.32;95241.97;5017461;28;20265;-89
2023/01/20 08:26:11;;;;;;;9.07;7.10;;;;;;;1.48;69.98;95234.41;5017574;28;20621;-87
2023/01/20 08:28:38;;;;;;;8.47;7.40;;;;;;;1.49;69.73;95242.84;5017305;28;20210;-87
2023/01/20 08:31:10;;;;;;;8.93;6.90;;;;;;;1.61;69.56;95241.78;5014564;28;20888;-87
2023/01/20 08:33:44;;;;;;;8.77;7.30;;;;;;;1.64;68.74;95244.06;5017793;28;20237;-88
2023/01/20 08:36:13;;;;;;;7.97;6.70;;;;;;;1.67;68.70;95252.22;5019287;28;20253;-87
2023/01/20 08:38:42;;;;;;;7.47;6.73;;;;;;;1.70;68.49;95253.72;5011152;28;20202;-87
2023/01/20 08:41:12;;;;;;;8.73;7.50;;;;;;;1.58;68.16;95252.19;5017238;28;20198;-87
2023/01/20 08:43:39;;;;;;;8.80;6.93;;;;;;;1.46;68.85;95256.56;5017737;28;20881;-87
2023/01/20 08:46:12;;;;;;;8.63;7.33;;;;;;;1.53;68.72;95257.66;5017397;28;20278;-87
2023/01/20 08:48:49;;;;;;;9.50;7.53;;;;;;;1.57;68.42;95269.13;5016987;28;20205;-88
2023/01/20 08:51:18;;;;;;;9.33;6.83;;;;;;;1.60;67.90;95270.63;5016442;28;20210;-87
2023/01/20 08:53:50;;;;;;;9.23;7.07;;;;;;;1.60;68.13;95270.63;5016472;28;20230;-87
2023/01/20 08:56:18;;;;;;;8.13;7.17;;;;;;;1.59;68.39;95281.69;5013320;28;20541;-87
2023/01/20 08:58:45;;;;;;;8.13;6.70;;;;;;;1.57;68.32;95286.91;5015655;28;20209;-87
2023/01/20 09:01:14;;;;;;;7.50;6.23;;;;;;;1.57;68.14;95289.44;5014340;28;20199;-87
2023/01/20 09:03:45;;;;;;;8.13;6.90;;;;;;;1.44;68.29;95281.25;5016200;28;20269;-88
2023/01/20 09:06:12;;;;;;;8.53;7.07;;;;;;;1.47;68.52;95278.47;5016216;28;20264;-88
2023/01/20 09:08:50;;;;;;;8.70;6.67;;;;;;;1.54;68.37;95282.06;5016658;28;20206;-87
2023/01/20 09:11:19;;;;;;;7.83;6.93;;;;;;;1.51;68.26;95289.16;5014742;28;20646;-88
2023/01/20 09:13:46;;;;;;;8.93;6.40;;;;;;;1.52;68.06;95286.50;5015635;28;20219;-87
2023/01/20 09:16:16;;;;;;;9.87;7.40;;;;;;;1.66;67.86;95290.41;5013941;28;20198;-88
2023/01/20 09:18:44;;;;;;;8.67;7.10;;;;;;;1.76;67.84;95298.84;5018401;28;20211;-87
2023/01/20 09:21:11;;;;;;;9.20;7.47;;;;;;;1.86;67.74;95309.03;5019034;28;20213;-87
2023/01/20 09:23:42;;;;;;;8.40;7.50;;;;;;;1.90;67.75;95307.84;5019154;28;20305;-88
2023/01/20 09:26:09;;;;;;;8.50;7.57;;;;;;;1.86;67.79;95312.38;5020175;28;20203;-88
2023/01/20 09:28:36;;;;;;;9.93;7.50;;;;;;;1.83;67.93;95301.66;5019380;28;20213;-87
2023/01/20 09:31:05;;;;;;;8.23;7.33;;;;;;;1.75;68.41;95312.47;5010829;28;20218;-88
2023/01/20 09:33:34;;;;;;;8.10;6.93;;;;;;;1.68;68.83;95319.00;5018966;28;20222;-87
2023/01/20 09:36:07;;;;;;;9.73;7.50;;;;;;;1.58;69.37;95323.22;5020001;28;20275;-87
2023/01/20 09:44:28;;;;;;;7.37;6.20;;;;;;;1.57;69.82;95329.22;4961873;28;20504;-88
2023/01/20 09:47:20;;;;;;;6.90;6.10;;;;;;;1.69;69.58;95334.09;5003274;28;20217;-88
2023/01/20 09:53:04;;;;;;;9.00;7.30;;;;;;;1.92;69.16;95337.25;5013081;28;21894;-87
2023/01/20 09:55:39;;;;;;;7.20;6.00;;;;;;;2.04;68.75;95328.56;5016924;28;20202;-87
2023/01/20 09:58:13;;;;;;;10.83;6.17;;;;;;;2.14;68.20;95343.00;5018041;28;20204;-88
2023/01/20 10:00:42;;;;;;;7.70;6.20;;;;;;;2.02;68.50;95338.06;5017767;28;20203;-87
2023/01/20 10:03:14;;;;;;;6.60;5.53;;;;;;;2.01;68.01;95341.53;5017920;28;20218;-87
2023/01/20 10:05:43;;;;;;;6.87;5.50;;;;;;;2.02;67.62;95342.34;5013969;28;20214;-88
2023/01/20 10:08:19;;;;;;;7.97;5.60;;;;;;;2.00;68.01;95336.56;5015939;28;20214;-87
2023/01/20 10:10:51;;;;;;;7.63;5.50;;;;;;;1.95;67.80;95338.69;5015242;28;20215;-87
2023/01/20 10:13:24;;;;;;;6.40;5.43;;;;;;;1.96;68.08;95335.22;5016253;28;20249;-87
2023/01/20 10:15:53;;;;;;;5.87;5.27;;;;;;;2.05;68.21;95334.47;5008861;28;20669;-88
2023/01/20 10:18:24;;;;;;;6.67;5.67;;;;;;;2.08;67.65;95339.28;5006927;28;20787;-88
2023/01/20 10:20:55;;;;;;;6.67;5.33;;;;;;;2.03;68.06;95342.19;5016426;28;20706;-88
2023/01/20 10:23:29;;;;;;;5.90;5.23;;;;;;;2.01;68.09;95339.00;5003230;28;20231;-87
2023/01/20 10:26:04;;;;;;;6.30;5.70;;;;;;;2.03;68.30;95337.13;5013522;28;20576;-88
2023/01/20 10:28:34;;;;;;;5.77;5.13;;;;;;;2.18;67.99;95336.75;4980205;28;20239;-87
2023/01/20 10:31:04;;;;;;;6.27;5.50;;;;;;;2.21;67.69;95342.38;5012749;28;20216;-88
2023/01/20 10:33:34;;;;;;;7.13;5.77;;;;;;;2.22;67.48;95345.72;5014318;28;20214;-89
2023/01/20 10:36:01;;;;;;;10.77;5.87;;;;;;;2.23;67.74;95337.97;5017878;28;20201;-87
2023/01/20 10:38:43;;;;;;;7.17;5.20;;;;;;;2.22;67.54;95343.97;5015761;28;20227;-88
2023/01/20 10:41:14;;;;;;;5.30;4.80;;;;;;;2.23;67.10;95342.25;5015448;28;20199;-87
2023/01/20 10:43:41;;;;;;;5.70;4.43;;;;;;;2.22;66.78;95343.97;5015287;28;21007;-87
2023/01/20 10:46:27;;;;;;;5.90;4.60;;;;;;;2.28;66.68;95342.66;5015268;28;20221;-88
2023/01/20 10:49:28;;;;;;;5.70;4.40;;;;;;;2.19;66.44;95344.22;5015496;28;20202;-88
2023/01/20 10:52:12;;;;;;;4.13;3.70;;;;;;;2.22;66.29;95349.06;5014268;28;20215;-87
2023/01/20 10:54:48;;;;;;;6.67;4.03;;;;;;;2.29;65.91;95346.81;5016387;28;20206;-87
2023/01/20 10:57:15;;;;;;;5.30;4.20;;;;;;;2.34;66.08;95342.91;5014480;28;20202;-87
2023/01/20 10:59:44;;;;;;;5.53;4.00;;;;;;;2.38;66.34;95335.84;5016589;28;20207;-88
2023/01/20 11:02:17;;;;;;;5.33;4.70;;;;;;;2.35;66.41;95339.44;5016351;28;20203;-88
2023/01/20 11:04:45;;;;;;;16.50;12.20;;;;;;;2.48;67.27;95346.03;5014818;28;20225;-87
2023/01/20 11:07:16;;;;;;;7.90;6.20;;;;;;;2.50;66.60;95346.69;5014490;28;20199;-86
2023/01/20 11:09:44;;;;;;;5.73;4.63;;;;;;;2.42;67.12;95337.19;5014825;28;20206;-87
2023/01/20 11:12:16;;;;;;;5.23;4.60;;;;;;;2.40;67.22;95347.47;5014877;28;20215;-87
2023/01/20 11:14:42;;;;;;;4.97;4.50;;;;;;;2.43;67.71;95344.69;5011880;28;20203;-88
2023/01/20 11:17:14;;;;;;;5.40;4.43;;;;;;;2.43;68.13;95346.41;5013430;28;20699;-88
2023/01/20 11:19:50;;;;;;;4.77;4.10;;;;;;;2.39;67.67;95345.06;5015479;28;20210;-87
2023/01/20 11:22:22;;;;;;;6.27;3.83;;;;;;;2.29;66.96;95349.34;5014602;28;20206;-87
2023/01/20 11:24:54;;;;;;;4.73;3.80;;;;;;;2.27;67.01;95348.66;5016044;28;20302;-87
2023/01/20 11:27:24;;;;;;;4.40;3.90;;;;;;;2.35;67.96;95341.19;5016014;28;20203;-87
2023/01/20 11:29:56;;;;;;;4.70;4.27;;;;;;;2.45;68.14;95351.38;5015849;28;20213;-87
2023/01/20 11:32:28;;;;;;;4.57;4.00;;;;;;;2.35;67.63;95349.59;5015073;28;20230;-88
2023/01/20 11:34:55;;;;;;;6.73;4.87;;;;;;;2.33;68.02;95346.38;5014263;28;20639;-87
2023/01/20 11:37:25;;;;;;;5.80;4.53;;;;;;;2.35;68.97;95349.59;5015939;28;20230;-88
2023/01/20 11:40:01;;;;;;;6.07;5.00;;;;;;;2.36;68.89;95343.59;5017854;28;20742;-87
2023/01/20 11:42:30;;;;;;;5.60;5.10;;;;;;;2.40;69.36;95344.13;5015694;28;20215;-88
2023/01/20 11:44:58;;;;;;;5.70;5.07;;;;;;;2.43;68.93;95347.22;5016144;28;20191;-88
2023/01/20 11:47:27;;;;;;;6.20;5.60;;;;;;;2.47;68.90;95347.75;5015065;28;20286;-87
2023/01/20 11:50:23;;;;;;;6.17;5.57;;;;;;;2.38;68.70;95346.00;5016135;28;20258;-87
2023/01/20 11:52:50;;;;;;;6.63;5.40;;;;;;;2.45;69.75;95343.75;5002741;28;20219;-87
2023/01/20 11:55:20;;;;;;;7.47;5.70;;;;;;;2.57;69.18;95346.00;5015749;28;20203;-87
2023/01/20 11:57:52;;;;;;;6.97;6.00;;;;;;;2.56;69.68;95341.88;5010165;28;20202;-87
2023/01/20 12:00:36;;;;;;;6.90;5.80;;;;;;;2.59;69.38;95348.41;5015117;28;20191;-88
2023/01/20 12:03:13;;;;;;;6.80;5.73;;;;;;;2.52;69.86;95342.25;5014535;28;20218;-88
2023/01/20 12:05:47;;;;;;;6.50;5.80;;;;;;;2.60;69.29;95345.75;5014252;28;20210;-87